PWSweather.com
Personal Weather Stations
Station Observations
KCOFORTM15
Fort Morgan, CO

Fort Morgan, CO

Lat: 40.26, Lon: -103.784

Elevation: 4724

Station Type:

Latest ConditionsUpdated 9:59:00 AM MST Monday, Jan 21, 2019
Currently Today's Max Today's Min Today's Average
Temperature 26.4°F-3.1°C 28.0°F-2.2°C 19.2°F-7.1°C 23.4°F-4.8°C
Dew Point 23.9°F-4.5°C 24.4°F-4.2°C 17.1°F-8.3°C 20.9°F-6.2°C
Winds 2.0 mph W3.2 kmh W 3.8 mph -6.1 kmh - - 0.5 mph 0.8 kmh
Wind Gusts 2.2 mph3.5 kmh 4.5 mph7.2 kmh - -
Humidity 90% 94% 85% 90%
Pressure 29.39 in995.3 mb 29.55 in1000.7 mb 29.39 in995.3 mb -
Hour Temp Dew Point Humidity Winds Wind Gusts Pressure Precip Precip Rate Daily Precip Total
09:59 AM 26.4°F-3.1°C 23.9°F-4.5°C 90% 2.0 mph W3.2 kmh W 2.2 mph3.5 kmh 29.39 in995.3 mb 0.00 in0.0 mm 0.00 in0.0 mm 0.00 in0.0 mm
09:54 AM 26.8°F-2.9°C 24.3°F-4.3°C 90% 0.9 mph SW1.4 kmh SW 1.1 mph1.8 kmh 29.40 in995.6 mb 0.00 in0.0 mm 0.00 in0.0 mm 0.00 in0.0 mm
09:49 AM 26.2°F-3.2°C 24.1°F-4.4°C 91% 3.8 mph NNE6.1 kmh NNE 4.5 mph7.2 kmh 29.39 in995.3 mb 0.00 in0.0 mm 0.00 in0.0 mm 0.00 in0.0 mm
09:44 AM 26.4°F-3.1°C 24.3°F-4.3°C 91% 1.3 mph NE2.1 kmh NE 2.2 mph3.5 kmh 29.40 in995.6 mb 0.00 in0.0 mm 0.00 in0.0 mm 0.00 in0.0 mm
09:39 AM 25.9°F-3.4°C 23.9°F-4.5°C 92% 1.8 mph SW2.9 kmh SW 2.2 mph3.5 kmh 29.39 in995.3 mb 0.00 in0.0 mm 0.00 in0.0 mm 0.00 in0.0 mm
09:34 AM 25.5°F-3.6°C 23.5°F-4.7°C 92% 1.8 mph W2.9 kmh W 2.2 mph3.5 kmh 29.39 in995.3 mb 0.00 in0.0 mm 0.00 in0.0 mm 0.00 in0.0 mm
09:29 AM 25.5°F-3.6°C 23.5°F-4.7°C 92% 3.1 mph NE5.0 kmh NE 4.5 mph7.2 kmh 29.39 in995.3 mb 0.00 in0.0 mm 0.00 in0.0 mm 0.00 in0.0 mm
09:24 AM 25.3°F-3.7°C 23.4°F-4.8°C 92% 2.2 mph NNE3.5 kmh NNE 3.4 mph5.5 kmh 29.39 in995.3 mb 0.00 in0.0 mm 0.00 in0.0 mm 0.00 in0.0 mm
09:19 AM 26.1°F-3.3°C 24.3°F-4.3°C 93% 1.8 mph NNW2.9 kmh NNW 2.2 mph3.5 kmh 29.39 in995.3 mb 0.00 in0.0 mm 0.00 in0.0 mm 0.00 in0.0 mm
09:14 AM 25.7°F-3.5°C 24.1°F-4.4°C 94% Calm Calm -- 29.39 in995.3 mb 0.00 in0.0 mm 0.00 in0.0 mm 0.00 in0.0 mm
09:09 AM 24.8°F-4.0°C 23.0°F-5.0°C 93% 2.0 mph SW3.2 kmh SW 2.2 mph3.5 kmh 29.40 in995.6 mb 0.00 in0.0 mm 0.00 in0.0 mm 0.00 in0.0 mm
09:04 AM 24.1°F-4.4°C 22.3°F-5.4°C 93% 0.7 mph NW1.1 kmh NW 1.1 mph1.8 kmh 29.40 in995.6 mb 0.00 in0.0 mm 0.00 in0.0 mm 0.00 in0.0 mm
08:59 AM 23.9°F-4.5°C 22.1°F-5.5°C 93% 2.2 mph NW3.5 kmh NW 2.2 mph3.5 kmh 29.39 in995.3 mb 0.00 in0.0 mm 0.00 in0.0 mm 0.00 in0.0 mm
08:54 AM 23.5°F-4.7°C 21.9°F-5.6°C 94% 0.2 mph S0.3 kmh S 1.1 mph1.8 kmh 29.39 in995.3 mb 0.00 in0.0 mm 0.00 in0.0 mm 0.00 in0.0 mm
08:49 AM 23.4°F-4.8°C 21.7°F-5.7°C 94% 0.7 mph SSE1.1 kmh SSE 1.1 mph1.8 kmh 29.40 in995.6 mb 0.00 in0.0 mm 0.00 in0.0 mm 0.00 in0.0 mm
08:44 AM 23.0°F-5.0°C 21.4°F-5.9°C 94% 0.2 mph SSE0.3 kmh SSE 1.1 mph1.8 kmh 29.40 in995.6 mb 0.00 in0.0 mm 0.00 in0.0 mm 0.00 in0.0 mm
08:39 AM 22.8°F-5.1°C 21.2°F-6.0°C 94% 0.9 mph W1.4 kmh W 2.2 mph3.5 kmh 29.40 in995.6 mb 0.00 in0.0 mm 0.00 in0.0 mm 0.00 in0.0 mm
08:34 AM 22.8°F-5.1°C 21.2°F-6.0°C 94% 0.2 mph SSW0.3 kmh SSW 1.1 mph1.8 kmh 29.41 in995.9 mb 0.00 in0.0 mm 0.00 in0.0 mm 0.00 in0.0 mm
08:29 AM 22.6°F-5.2°C 21.0°F-6.1°C 94% Calm Calm -- 29.40 in995.6 mb 0.00 in0.0 mm 0.00 in0.0 mm 0.00 in0.0 mm
08:24 AM 22.3°F-5.4°C 20.7°F-6.3°C 94% Calm Calm -- 29.40 in995.6 mb 0.00 in0.0 mm 0.00 in0.0 mm 0.00 in0.0 mm
08:19 AM 21.7°F-5.7°C 19.9°F-6.7°C 93% Calm Calm -- 29.41 in995.9 mb 0.00 in0.0 mm 0.00 in0.0 mm 0.00 in0.0 mm
08:14 AM 21.6°F-5.8°C 19.8°F-6.8°C 93% 1.1 mph WSW1.8 kmh WSW 1.1 mph1.8 kmh 29.41 in995.9 mb 0.00 in0.0 mm 0.00 in0.0 mm 0.00 in0.0 mm
08:09 AM 21.2°F-6.0°C 19.4°F-7.0°C 93% Calm Calm -- 29.42 in996.3 mb 0.00 in0.0 mm 0.00 in0.0 mm 0.00 in0.0 mm
08:04 AM 20.7°F-6.3°C 18.9°F-7.3°C 93% 1.3 mph WSW2.1 kmh WSW 2.2 mph3.5 kmh 29.41 in995.9 mb 0.00 in0.0 mm 0.00 in0.0 mm 0.00 in0.0 mm
07:59 AM 20.1°F-6.6°C 18.1°F-7.7°C 92% 1.3 mph WSW2.1 kmh WSW 2.2 mph3.5 kmh 29.42 in996.3 mb 0.00 in0.0 mm 0.00 in0.0 mm 0.00 in0.0 mm
07:54 AM 19.9°F-6.7°C 18.0°F-7.8°C 92% 0.9 mph WSW1.4 kmh WSW 1.1 mph1.8 kmh 29.41 in995.9 mb 0.00 in0.0 mm 0.00 in0.0 mm 0.00 in0.0 mm
07:49 AM 19.9°F-6.7°C 18.0°F-7.8°C 92% 0.9 mph SW1.4 kmh SW 1.1 mph1.8 kmh 29.42 in996.3 mb 0.00 in0.0 mm 0.00 in0.0 mm 0.00 in0.0 mm
07:44 AM 19.9°F-6.7°C 18.0°F-7.8°C 92% 0.2 mph SE0.3 kmh SE 1.1 mph1.8 kmh 29.42 in996.3 mb 0.00 in0.0 mm 0.00 in0.0 mm 0.00 in0.0 mm
07:39 AM 19.9°F-6.7°C 17.8°F-7.9°C 91% 0.2 mph SW0.3 kmh SW 1.1 mph1.8 kmh 29.44 in997.0 mb 0.00 in0.0 mm 0.00 in0.0 mm 0.00 in0.0 mm
07:34 AM 19.8°F-6.8°C 17.6°F-8.0°C 91% 0.7 mph SSW1.1 kmh SSW 1.1 mph1.8 kmh 29.42 in996.3 mb 0.00 in0.0 mm 0.00 in0.0 mm 0.00 in0.0 mm
07:29 AM 19.6°F-6.9°C 17.4°F-8.1°C 91% 0.7 mph WSW1.1 kmh WSW 1.1 mph1.8 kmh 29.42 in996.3 mb 0.00 in0.0 mm 0.00 in0.0 mm 0.00 in0.0 mm
07:24 AM 19.6°F-6.9°C 17.4°F-8.1°C 91% Calm Calm -- 29.44 in997.0 mb 0.00 in0.0 mm 0.00 in0.0 mm 0.00 in0.0 mm
07:19 AM 19.6°F-6.9°C 17.4°F-8.1°C 91% 0.2 mph SSW0.3 kmh SSW 1.1 mph1.8 kmh 29.43 in996.6 mb 0.00 in0.0 mm 0.00 in0.0 mm 0.00 in0.0 mm
07:14 AM 19.2°F-7.1°C 17.1°F-8.3°C 91% Calm Calm -- 29.42 in996.3 mb 0.00 in0.0 mm 0.00 in0.0 mm 0.00 in0.0 mm
07:09 AM 19.6°F-6.9°C 17.4°F-8.1°C 91% Calm Calm -- 29.43 in996.6 mb 0.00 in0.0 mm 0.00 in0.0 mm 0.00 in0.0 mm
07:04 AM 19.8°F-6.8°C 17.6°F-8.0°C 91% Calm Calm -- 29.42 in996.3 mb 0.00 in0.0 mm 0.00 in0.0 mm 0.00 in0.0 mm
06:59 AM 19.9°F-6.7°C 17.8°F-7.9°C 91% Calm Calm -- 29.43 in996.6 mb 0.00 in0.0 mm 0.00 in0.0 mm 0.00 in0.0 mm
06:54 AM 20.1°F-6.6°C 18.0°F-7.8°C 91% Calm Calm -- 29.42 in996.3 mb 0.00 in0.0 mm 0.00 in0.0 mm 0.00 in0.0 mm
06:49 AM 20.3°F-6.5°C 18.1°F-7.7°C 91% 0.2 mph SW0.3 kmh SW 1.1 mph1.8 kmh 29.43 in996.6 mb 0.00 in0.0 mm 0.00 in0.0 mm 0.00 in0.0 mm
06:44 AM 20.5°F-6.4°C 18.3°F-7.6°C 91% Calm Calm -- 29.42 in996.3 mb 0.00 in0.0 mm 0.00 in0.0 mm 0.00 in0.0 mm
06:39 AM 20.3°F-6.5°C 18.1°F-7.7°C 91% 0.9 mph SW1.4 kmh SW 1.1 mph1.8 kmh 29.42 in996.3 mb 0.00 in0.0 mm 0.00 in0.0 mm 0.00 in0.0 mm
06:34 AM 20.7°F-6.3°C 18.5°F-7.5°C 91% 0.2 mph SSW0.3 kmh SSW 1.1 mph1.8 kmh 29.44 in997.0 mb 0.00 in0.0 mm 0.00 in0.0 mm 0.00 in0.0 mm
06:29 AM 20.8°F-6.2°C 18.7°F-7.4°C 91% 0.2 mph SSW0.3 kmh SSW 1.1 mph1.8 kmh 29.43 in996.6 mb 0.00 in0.0 mm 0.00 in0.0 mm 0.00 in0.0 mm
06:24 AM 20.7°F-6.3°C 18.5°F-7.5°C 91% 0.2 mph SSW0.3 kmh SSW 1.1 mph1.8 kmh 29.43 in996.6 mb 0.00 in0.0 mm 0.00 in0.0 mm 0.00 in0.0 mm
06:19 AM 20.1°F-6.6°C 18.0°F-7.8°C 91% Calm Calm -- 29.43 in996.6 mb 0.00 in0.0 mm 0.00 in0.0 mm 0.00 in0.0 mm
06:14 AM 20.7°F-6.3°C 18.5°F-7.5°C 91% Calm Calm -- 29.43 in996.6 mb 0.00 in0.0 mm 0.00 in0.0 mm 0.00 in0.0 mm
06:09 AM 20.7°F-6.3°C 18.5°F-7.5°C 91% Calm Calm -- 29.44 in997.0 mb 0.00 in0.0 mm 0.00 in0.0 mm 0.00 in0.0 mm
06:04 AM 20.8°F-6.2°C 18.7°F-7.4°C 91% Calm Calm -- 29.45 in997.3 mb 0.00 in0.0 mm 0.00 in0.0 mm 0.00 in0.0 mm
05:59 AM 21.0°F-6.1°C 18.9°F-7.3°C 91% Calm Calm -- 29.44 in997.0 mb 0.00 in0.0 mm 0.00 in0.0 mm 0.00 in0.0 mm
05:54 AM 21.4°F-5.9°C 19.2°F-7.1°C 91% Calm Calm -- 29.43 in996.6 mb 0.00 in0.0 mm 0.00 in0.0 mm 0.00 in0.0 mm
05:49 AM 21.2°F-6.0°C 19.0°F-7.2°C 91% 0.2 mph SSW0.3 kmh SSW 1.1 mph1.8 kmh 29.44 in997.0 mb 0.00 in0.0 mm 0.00 in0.0 mm 0.00 in0.0 mm
05:44 AM 21.4°F-5.9°C 19.2°F-7.1°C 91% Calm Calm -- 29.44 in997.0 mb 0.00 in0.0 mm 0.00 in0.0 mm 0.00 in0.0 mm
05:39 AM 21.4°F-5.9°C 19.2°F-7.1°C 91% 0.9 mph W1.4 kmh W 1.1 mph1.8 kmh 29.43 in996.6 mb 0.00 in0.0 mm 0.00 in0.0 mm 0.00 in0.0 mm
05:34 AM 21.4°F-5.9°C 19.2°F-7.1°C 91% 0.2 mph WSW0.3 kmh WSW 1.1 mph1.8 kmh 29.44 in997.0 mb 0.00 in0.0 mm 0.00 in0.0 mm 0.00 in0.0 mm
05:29 AM 21.6°F-5.8°C 19.0°F-7.2°C 90% Calm Calm -- 29.44 in997.0 mb 0.00 in0.0 mm 0.00 in0.0 mm 0.00 in0.0 mm
05:24 AM 21.7°F-5.7°C 19.2°F-7.1°C 90% Calm Calm -- 29.43 in996.6 mb 0.00 in0.0 mm 0.00 in0.0 mm 0.00 in0.0 mm
05:19 AM 21.9°F-5.6°C 19.4°F-7.0°C 90% Calm Calm -- 29.44 in997.0 mb 0.00 in0.0 mm 0.00 in0.0 mm 0.00 in0.0 mm
05:14 AM 22.5°F-5.3°C 19.9°F-6.7°C 90% 0.9 mph SW1.4 kmh SW 1.1 mph1.8 kmh 29.44 in997.0 mb 0.00 in0.0 mm 0.00 in0.0 mm 0.00 in0.0 mm
05:09 AM 22.6°F-5.2°C 20.1°F-6.6°C 90% Calm Calm -- 29.45 in997.3 mb 0.00 in0.0 mm 0.00 in0.0 mm 0.00 in0.0 mm
05:04 AM 22.6°F-5.2°C 20.1°F-6.6°C 90% 0.7 mph SW1.1 kmh SW 1.1 mph1.8 kmh 29.45 in997.3 mb 0.00 in0.0 mm 0.00 in0.0 mm 0.00 in0.0 mm
04:59 AM 22.6°F-5.2°C 20.1°F-6.6°C 90% Calm Calm -- 29.46 in997.6 mb 0.00 in0.0 mm 0.00 in0.0 mm 0.00 in0.0 mm
04:54 AM 22.8°F-5.1°C 20.3°F-6.5°C 90% Calm Calm -- 29.45 in997.3 mb 0.00 in0.0 mm 0.00 in0.0 mm 0.00 in0.0 mm
04:49 AM 22.8°F-5.1°C 20.3°F-6.5°C 90% Calm Calm -- 29.46 in997.6 mb 0.00 in0.0 mm 0.00 in0.0 mm 0.00 in0.0 mm
04:44 AM 22.8°F-5.1°C 20.3°F-6.5°C 90% Calm Calm -- 29.45 in997.3 mb 0.00 in0.0 mm 0.00 in0.0 mm 0.00 in0.0 mm
04:39 AM 22.8°F-5.1°C 20.3°F-6.5°C 90% 0.2 mph SW0.3 kmh SW 1.1 mph1.8 kmh 29.47 in998.0 mb 0.00 in0.0 mm 0.00 in0.0 mm 0.00 in0.0 mm
04:34 AM 23.0°F-5.0°C 20.5°F-6.4°C 90% Calm Calm -- 29.47 in998.0 mb 0.00 in0.0 mm 0.00 in0.0 mm 0.00 in0.0 mm
04:29 AM 22.8°F-5.1°C 20.3°F-6.5°C 90% Calm Calm -- 29.47 in998.0 mb 0.00 in0.0 mm 0.00 in0.0 mm 0.00 in0.0 mm
04:24 AM 22.8°F-5.1°C 20.3°F-6.5°C 90% 0.2 mph SW0.3 kmh SW 1.1 mph1.8 kmh 29.47 in998.0 mb 0.00 in0.0 mm 0.00 in0.0 mm 0.00 in0.0 mm
04:19 AM 23.0°F-5.0°C 20.1°F-6.6°C 89% 0.9 mph SW1.4 kmh SW 1.1 mph1.8 kmh 29.47 in998.0 mb 0.00 in0.0 mm 0.00 in0.0 mm 0.00 in0.0 mm
04:14 AM 23.0°F-5.0°C 20.1°F-6.6°C 89% 0.7 mph S1.1 kmh S 1.1 mph1.8 kmh 29.47 in998.0 mb 0.00 in0.0 mm 0.00 in0.0 mm 0.00 in0.0 mm
04:09 AM 23.2°F-4.9°C 20.3°F-6.5°C 89% 1.1 mph SW1.8 kmh SW 1.1 mph1.8 kmh 29.48 in998.3 mb 0.00 in0.0 mm 0.00 in0.0 mm 0.00 in0.0 mm
04:04 AM 23.5°F-4.7°C 20.7°F-6.3°C 89% 1.6 mph WSW2.6 kmh WSW 2.2 mph3.5 kmh 29.48 in998.3 mb 0.00 in0.0 mm 0.00 in0.0 mm 0.00 in0.0 mm
03:59 AM 23.5°F-4.7°C 21.0°F-6.1°C 90% 0.7 mph SSW1.1 kmh SSW 1.1 mph1.8 kmh 29.47 in998.0 mb 0.00 in0.0 mm 0.00 in0.0 mm 0.00 in0.0 mm
03:54 AM 23.7°F-4.6°C 21.2°F-6.0°C 90% Calm Calm -- 29.48 in998.3 mb 0.00 in0.0 mm 0.00 in0.0 mm 0.00 in0.0 mm
03:49 AM 23.5°F-4.7°C 21.0°F-6.1°C 90% 2.0 mph WSW3.2 kmh WSW 2.2 mph3.5 kmh 29.47 in998.0 mb 0.00 in0.0 mm 0.00 in0.0 mm 0.00 in0.0 mm
03:44 AM 23.9°F-4.5°C 21.4°F-5.9°C 90% 0.2 mph SW0.3 kmh SW 1.1 mph1.8 kmh 29.49 in998.6 mb 0.00 in0.0 mm 0.00 in0.0 mm 0.00 in0.0 mm
03:39 AM 24.1°F-4.4°C 21.6°F-5.8°C 90% 0.2 mph SSW0.3 kmh SSW 1.1 mph1.8 kmh 29.49 in998.6 mb 0.00 in0.0 mm 0.00 in0.0 mm 0.00 in0.0 mm
03:34 AM 24.1°F-4.4°C 21.6°F-5.8°C 90% Calm Calm -- 29.48 in998.3 mb 0.00 in0.0 mm 0.00 in0.0 mm 0.00 in0.0 mm
03:29 AM 23.9°F-4.5°C 21.4°F-5.9°C 90% Calm Calm -- 29.48 in998.3 mb 0.00 in0.0 mm 0.00 in0.0 mm 0.00 in0.0 mm
03:24 AM 23.7°F-4.6°C 21.2°F-6.0°C 90% Calm Calm -- 29.49 in998.6 mb 0.00 in0.0 mm 0.00 in0.0 mm 0.00 in0.0 mm
03:19 AM 23.7°F-4.6°C 21.2°F-6.0°C 90% Calm Calm -- 29.49 in998.6 mb 0.00 in0.0 mm 0.00 in0.0 mm 0.00 in0.0 mm
03:14 AM 24.1°F-4.4°C 21.6°F-5.8°C 90% Calm Calm -- 29.50 in999.0 mb 0.00 in0.0 mm 0.00 in0.0 mm 0.00 in0.0 mm
03:09 AM 24.4°F-4.2°C 21.9°F-5.6°C 90% Calm Calm -- 29.49 in998.6 mb 0.00 in0.0 mm 0.00 in0.0 mm 0.00 in0.0 mm
03:04 AM 24.4°F-4.2°C 21.9°F-5.6°C 90% Calm Calm -- 29.49 in998.6 mb 0.00 in0.0 mm 0.00 in0.0 mm 0.00 in0.0 mm
02:59 AM 24.6°F-4.1°C 22.1°F-5.5°C 90% 0.4 mph SW0.6 kmh SW 1.1 mph1.8 kmh 29.49 in998.6 mb 0.00 in0.0 mm 0.00 in0.0 mm 0.00 in0.0 mm
02:54 AM 24.6°F-4.1°C 22.1°F-5.5°C 90% 0.2 mph SSW0.3 kmh SSW 1.1 mph1.8 kmh 29.49 in998.6 mb 0.00 in0.0 mm 0.00 in0.0 mm 0.00 in0.0 mm
02:49 AM 24.4°F-4.2°C 21.9°F-5.6°C 90% Calm Calm -- 29.49 in998.6 mb 0.00 in0.0 mm 0.00 in0.0 mm 0.00 in0.0 mm
02:44 AM 24.8°F-4.0°C 22.3°F-5.4°C 90% Calm Calm -- 29.49 in998.6 mb 0.00 in0.0 mm 0.00 in0.0 mm 0.00 in0.0 mm
02:39 AM 25.0°F-3.9°C 22.5°F-5.3°C 90% 0.2 mph SW0.3 kmh SW 1.1 mph1.8 kmh 29.49 in998.6 mb 0.00 in0.0 mm 0.00 in0.0 mm 0.00 in0.0 mm
02:34 AM 25.0°F-3.9°C 22.1°F-5.5°C 89% Calm Calm -- 29.49 in998.6 mb 0.00 in0.0 mm 0.00 in0.0 mm 0.00 in0.0 mm
02:29 AM 25.2°F-3.8°C 22.6°F-5.2°C 90% 0.7 mph SSW1.1 kmh SSW 1.1 mph1.8 kmh 29.50 in999.0 mb 0.00 in0.0 mm 0.00 in0.0 mm 0.00 in0.0 mm
02:24 AM 24.8°F-4.0°C 21.9°F-5.6°C 89% Calm Calm -- 29.50 in999.0 mb 0.00 in0.0 mm 0.00 in0.0 mm 0.00 in0.0 mm
02:19 AM 24.6°F-4.1°C 21.4°F-5.9°C 88% Calm Calm -- 29.50 in999.0 mb 0.00 in0.0 mm 0.00 in0.0 mm 0.00 in0.0 mm
02:14 AM 25.2°F-3.8°C 21.9°F-5.6°C 88% 0.7 mph SW1.1 kmh SW 1.1 mph1.8 kmh 29.50 in999.0 mb 0.00 in0.0 mm 0.00 in0.0 mm 0.00 in0.0 mm
02:09 AM 25.0°F-3.9°C 22.1°F-5.5°C 89% 0.9 mph S1.4 kmh S 1.1 mph1.8 kmh 29.50 in999.0 mb 0.00 in0.0 mm 0.00 in0.0 mm 0.00 in0.0 mm
02:04 AM 25.0°F-3.9°C 22.1°F-5.5°C 89% Calm Calm -- 29.50 in999.0 mb 0.00 in0.0 mm 0.00 in0.0 mm 0.00 in0.0 mm
01:59 AM 25.0°F-3.9°C 22.1°F-5.5°C 89% Calm Calm -- 29.50 in999.0 mb 0.00 in0.0 mm 0.00 in0.0 mm 0.00 in0.0 mm
01:54 AM 24.8°F-4.0°C 21.9°F-5.6°C 89% 0.9 mph SSW1.4 kmh SSW 1.1 mph1.8 kmh 29.50 in999.0 mb 0.00 in0.0 mm 0.00 in0.0 mm 0.00 in0.0 mm
01:49 AM 25.0°F-3.9°C 22.1°F-5.5°C 89% Calm Calm -- 29.50 in999.0 mb 0.00 in0.0 mm 0.00 in0.0 mm 0.00 in0.0 mm
01:44 AM 25.0°F-3.9°C 22.1°F-5.5°C 89% Calm Calm -- 29.50 in999.0 mb 0.00 in0.0 mm 0.00 in0.0 mm 0.00 in0.0 mm
01:39 AM 25.0°F-3.9°C 21.7°F-5.7°C 88% Calm Calm -- 29.52 in999.7 mb 0.00 in0.0 mm 0.00 in0.0 mm 0.00 in0.0 mm
01:34 AM 25.2°F-3.8°C 21.9°F-5.6°C 88% Calm Calm -- 29.51 in999.3 mb 0.00 in0.0 mm 0.00 in0.0 mm 0.00 in0.0 mm
01:29 AM 25.5°F-3.6°C 22.3°F-5.4°C 88% Calm Calm -- 29.51 in999.3 mb 0.00 in0.0 mm 0.00 in0.0 mm 0.00 in0.0 mm
01:24 AM 25.7°F-3.5°C 22.5°F-5.3°C 88% Calm Calm -- 29.52 in999.7 mb 0.00 in0.0 mm 0.00 in0.0 mm 0.00 in0.0 mm
01:19 AM 25.9°F-3.4°C 22.6°F-5.2°C 88% 0.7 mph SW1.1 kmh SW 1.1 mph1.8 kmh 29.53 in1000.0 mb 0.00 in0.0 mm 0.00 in0.0 mm 0.00 in0.0 mm
01:14 AM 26.1°F-3.3°C 22.8°F-5.1°C 88% 0.9 mph SW1.4 kmh SW 1.1 mph1.8 kmh 29.51 in999.3 mb 0.00 in0.0 mm 0.00 in0.0 mm 0.00 in0.0 mm
01:09 AM 26.1°F-3.3°C 22.8°F-5.1°C 88% 1.1 mph SW1.8 kmh SW 1.1 mph1.8 kmh 29.52 in999.7 mb 0.00 in0.0 mm 0.00 in0.0 mm 0.00 in0.0 mm
01:04 AM 25.9°F-3.4°C 22.6°F-5.2°C 88% Calm Calm -- 29.52 in999.7 mb 0.00 in0.0 mm 0.00 in0.0 mm 0.00 in0.0 mm
12:59 AM 26.2°F-3.2°C 23.0°F-5.0°C 88% 0.9 mph SW1.4 kmh SW 1.1 mph1.8 kmh 29.52 in999.7 mb 0.00 in0.0 mm 0.00 in0.0 mm 0.00 in0.0 mm
12:54 AM 26.1°F-3.3°C 22.8°F-5.1°C 88% 0.2 mph SW0.3 kmh SW 1.1 mph1.8 kmh 29.52 in999.7 mb 0.00 in0.0 mm 0.00 in0.0 mm 0.00 in0.0 mm
12:49 AM 25.7°F-3.5°C 22.3°F-5.4°C 87% Calm Calm -- 29.52 in999.7 mb 0.00 in0.0 mm 0.00 in0.0 mm 0.00 in0.0 mm
12:44 AM 26.2°F-3.2°C 22.8°F-5.1°C 87% 0.7 mph SSW1.1 kmh SSW 1.1 mph1.8 kmh 29.53 in1000.0 mb 0.00 in0.0 mm 0.00 in0.0 mm 0.00 in0.0 mm
12:39 AM 26.8°F-2.9°C 23.4°F-4.8°C 87% 0.2 mph SW0.3 kmh SW 1.1 mph1.8 kmh 29.53 in1000.0 mb 0.00 in0.0 mm 0.00 in0.0 mm 0.00 in0.0 mm
12:34 AM 27.1°F-2.7°C 23.5°F-4.7°C 86% Calm Calm -- 29.53 in1000.0 mb 0.00 in0.0 mm 0.00 in0.0 mm 0.00 in0.0 mm
12:29 AM 27.7°F-2.4°C 24.1°F-4.4°C 86% 0.2 mph SW0.3 kmh SW 1.1 mph1.8 kmh 29.54 in1000.3 mb 0.00 in0.0 mm 0.00 in0.0 mm 0.00 in0.0 mm
12:24 AM 27.7°F-2.4°C 24.3°F-4.3°C 87% 1.1 mph SW1.8 kmh SW 1.1 mph1.8 kmh 29.54 in1000.3 mb 0.00 in0.0 mm 0.00 in0.0 mm 0.00 in0.0 mm
12:19 AM 28.0°F-2.2°C 24.4°F-4.2°C 86% Calm Calm -- 29.54 in1000.3 mb 0.00 in0.0 mm 0.00 in0.0 mm 0.00 in0.0 mm
12:14 AM 27.5°F-2.5°C 23.9°F-4.5°C 86% Calm Calm -- 29.54 in1000.3 mb 0.00 in0.0 mm 0.00 in0.0 mm 0.00 in0.0 mm
12:09 AM 27.5°F-2.5°C 23.9°F-4.5°C 86% Calm Calm -- 29.54 in1000.3 mb 0.00 in0.0 mm 0.00 in0.0 mm 0.00 in0.0 mm
12:04 AM 27.7°F-2.4°C 23.7°F-4.6°C 85% 0.2 mph S0.3 kmh S 1.1 mph1.8 kmh 29.55 in1000.7 mb 0.00 in0.0 mm 0.00 in0.0 mm 0.00 in0.0 mm